Pilot No 5 — WDC3840 — position and weather

sailwx.info

Track history (hours):
 
Tides and Currents Weather Stations Pressure Air Temp Water Temp Dewpoint Dewpoint Depression Visibility Wind Speed Wind Dir Waves Ship Positions

Pilot No 5

Owner: P E P INC, FT LAUDERDALE, FL. More information available from US FCC via Universal Licensing System and Coast Guard Vessel Documentation Center.

Last reported at 2016-Jul-27 22:33 UTC. Time now 2016-Jul-27 23:07 UTC.
Position N 26°06' W 080°07'.

Length 6 m.

Type: Pilot. MMSI: 367015090.

Date/timePositionNaut miles runAvg speedWind from/ knotsBaromVisibWave heightAir tempDewpointWater temp
2016-Jul-27 22:33N 26°06' W 080°07'0 0.3
2016-Jul-27 21:34N 26°05' W 080°07'1 1.3
2016-Jul-27 20:34N 26°06' W 080°06'2 1.8
2016-Jul-27 19:34N 26°06' W 080°04'2 1.9
2016-Jul-27 18:33N 26°06' W 080°06'1 0.8
2016-Jul-27 17:34N 26°06' W 080°07'2 1.5
2016-Jul-27 16:33N 26°04' W 080°07'2 2.1
2016-Jul-27 15:33N 26°06' W 080°07'2 1.9
2016-Jul-27 14:33N 26°04' W 080°07'1 0.5
2016-Jul-27 12:34N 26°05' W 080°07'0 0.2
2016-Jul-27 11:33N 26°05' W 080°07'0 0.1
2016-Jul-27 10:33N 26°06' W 080°07'0 0.3
2016-Jul-27 09:33N 26°06' W 080°07'0 0.3
2016-Jul-27 08:17N 26°06' W 080°07'2 2.3
2016-Jul-27 07:33N 26°05' W 080°07'2 0.4
2016-Jul-27 03:12N 26°06' W 080°07'0 0.2
2016-Jul-27 01:33N 26°06' W 080°07'1 0.5
2016-Jul-27 00:33N 26°06' W 080°07'1 1.1
2016-Jul-26 23:33N 26°06' W 080°06'1 1.5
2016-Jul-26 22:33N 26°05' W 080°07'1 0.7
2016-Jul-26 21:33N 26°06' W 080°07'2 1.7
2016-Jul-26 20:33N 26°06' W 080°05'2 0.2
2016-Jul-26 10:19N 26°06' W 080°07'2 2.0
2016-Jul-26 09:33N 26°04' W 080°07'1 1.1
2016-Jul-26 08:33N 26°05' W 080°07'1 1.2
2016-Jul-26 07:34N 26°04' W 080°07'1 1.3
2016-Jul-26 06:34N 26°06' W 080°07'3 2.9
2016-Jul-26 05:34N 26°06' W 080°04'3 0.8
2016-Jul-26 01:33N 26°06' W 080°07'0 0.4
2016-Jul-26 00:33N 26°06' W 080°07'2 1.8
2016-Jul-25 23:33N 26°06' W 080°05'2 1.8
2016-Jul-25 22:33N 26°05' W 080°07'1 0.3
2016-Jul-25 19:16N 26°06' W 080°07'1 0.7
2016-Jul-25 18:33N 26°06' W 080°07'3 3.4
2016-Jul-25 17:33N 26°05' W 080°03'3 0.1
2016-Jul-24 10:10N 26°06' W 080°07'3 4.5
2016-Jul-24 09:33N 26°06' W 080°04'3 2.9
2016-Jul-24 08:33N 26°05' W 080°07'1 0.7
2016-Jul-24 07:33N 26°06' W 080°06'1 0.1
2016-Jul-24 01:33N 26°05' W 080°07'2 1.6
2016-Jul-24 00:33N 26°06' W 080°05'1 1.5
2016-Jul-23 23:33N 26°05' W 080°07'3 2.7
2016-Jul-23 22:34N 26°07' W 080°04'2 2.4
2016-Jul-23 21:33N 26°06' W 080°07'1 0.6
2016-Jul-23 20:33N 26°05' W 080°07'0 0.0
2016-Jul-23 11:28N 26°06' W 080°07'0 0.3
2016-Jul-23 10:34N 26°06' W 080°07'2 1.8
2016-Jul-23 09:33N 26°05' W 080°05'2 2.2
2016-Jul-23 08:33N 26°05' W 080°07'3 3.5
2016-Jul-23 07:33N 26°05' W 080°03'3 3.2
2016-Jul-23 06:33N 26°05' W 080°07'1 0.6
2016-Jul-23 04:34N 26°06' W 080°07'0 0.2
2016-Jul-23 03:23N 26°06' W 080°07'1 1.0
2016-Jul-23 02:33N 26°05' W 080°07'1 0.7
2016-Jul-23 01:33N 26°06' W 080°07'0 0.4
2016-Jul-23 00:33N 26°06' W 080°07'1 1.2
2016-Jul-22 23:33N 26°04' W 080°07'1 0.4
2016-Jul-22 20:34N 26°06' W 080°07'3 3.2
2016-Jul-22 19:33N 26°07' W 080°04'3 0.4
2016-Jul-22 10:33N 26°06' W 080°07'0 0.0
2016-Jul-21 13:12N 26°06' W 080°07'0 0.0
2016-Jul-21 12:33N 26°06' W 080°07'0 0.0
2016-Jul-20 18:32N 26°06' W 080°07'2 2.0
2016-Jul-20 17:34N 26°06' W 080°05'2 0.8
2016-Jul-20 15:06N 26°06' W 080°07'1 0.9
2016-Jul-20 14:33N 26°06' W 080°07'1 0.0
2016-Jul-19 15:33N 26°06' W 080°07'0 0.0
2016-Jul-19 14:33N 26°06' W 080°07'1 0.8
2016-Jul-19 13:33N 26°06' W 080°07'1 0.7
2016-Jul-19 12:33N 26°06' W 080°07'0 0.0
2016-Jul-19 11:33N 26°06' W 080°07'0 0.0
2016-Jul-19 10:33N 26°06' W 080°07'0 0.0
2016-Jul-18 19:16N 26°06' W 080°07'1 1.0
2016-Jul-18 18:33N 26°06' W 080°07'0 0.4
2016-Jul-18 17:33N 26°05' W 080°07'1 1.3
2016-Jul-18 16:33N 26°05' W 080°05'2 1.8
2016-Jul-18 15:33N 26°06' W 080°04'3 3.1
2016-Jul-18 14:33N 26°06' W 080°07'1 0.7
2016-Jul-18 13:33N 26°06' W 080°07'1 1.3
2016-Jul-18 12:34N 26°06' W 080°06'1 1.0
2016-Jul-18 11:33N 26°06' W 080°07'  
Track history (hours):
 
Tides and Currents Weather Stations Pressure Air Temp Water Temp Dewpoint Dewpoint Depression Visibility Wind Speed Wind Dir Waves Ship Positions

Pilot No 5

Owner: P E P INC, FT LAUDERDALE, FL. More information available from US FCC via Universal Licensing System and Coast Guard Vessel Documentation Center.

Last reported at 2016-Jul-27 22:33 UTC. Time now 2016-Jul-27 23:07 UTC.
Position N 26°06' W 080°07'.

Length 6 m.

Type: Pilot. MMSI: 367015090.

Date/timePositionNaut miles runAvg speedWind from/ knotsBaromVisibWave heightAir tempDewpointWater temp
2016-Jul-27 22:33N 26°06' W 080°07'0 0.3
2016-Jul-27 21:34N 26°05' W 080°07'1 1.3
2016-Jul-27 20:34N 26°06' W 080°06'2 1.8
2016-Jul-27 19:34N 26°06' W 080°04'2 1.9
2016-Jul-27 18:33N 26°06' W 080°06'1 0.8
2016-Jul-27 17:34N 26°06' W 080°07'2 1.5
2016-Jul-27 16:33N 26°04' W 080°07'2 2.1
2016-Jul-27 15:33N 26°06' W 080°07'2 1.9
2016-Jul-27 14:33N 26°04' W 080°07'1 0.5
2016-Jul-27 12:34N 26°05' W 080°07'0 0.2
2016-Jul-27 11:33N 26°05' W 080°07'0 0.1
2016-Jul-27 10:33N 26°06' W 080°07'0 0.3
2016-Jul-27 09:33N 26°06' W 080°07'0 0.3
2016-Jul-27 08:17N 26°06' W 080°07'2 2.3
2016-Jul-27 07:33N 26°05' W 080°07'2 0.4
2016-Jul-27 03:12N 26°06' W 080°07'0 0.2
2016-Jul-27 01:33N 26°06' W 080°07'1 0.5
2016-Jul-27 00:33N 26°06' W 080°07'1 1.1
2016-Jul-26 23:33N 26°06' W 080°06'1 1.5
2016-Jul-26 22:33N 26°05' W 080°07'1 0.7
2016-Jul-26 21:33N 26°06' W 080°07'2 1.7
2016-Jul-26 20:33N 26°06' W 080°05'2 0.2
2016-Jul-26 10:19N 26°06' W 080°07'2 2.0
2016-Jul-26 09:33N 26°04' W 080°07'1 1.1
2016-Jul-26 08:33N 26°05' W 080°07'1 1.2
2016-Jul-26 07:34N 26°04' W 080°07'1 1.3
2016-Jul-26 06:34N 26°06' W 080°07'3 2.9
2016-Jul-26 05:34N 26°06' W 080°04'3 0.8
2016-Jul-26 01:33N 26°06' W 080°07'0 0.4
2016-Jul-26 00:33N 26°06' W 080°07'2 1.8
2016-Jul-25 23:33N 26°06' W 080°05'2 1.8
2016-Jul-25 22:33N 26°05' W 080°07'1 0.3
2016-Jul-25 19:16N 26°06' W 080°07'1 0.7
2016-Jul-25 18:33N 26°06' W 080°07'3 3.4
2016-Jul-25 17:33N 26°05' W 080°03'3 0.1
2016-Jul-24 10:10N 26°06' W 080°07'3 4.5
2016-Jul-24 09:33N 26°06' W 080°04'3 2.9
2016-Jul-24 08:33N 26°05' W 080°07'1 0.7
2016-Jul-24 07:33N 26°06' W 080°06'1 0.1
2016-Jul-24 01:33N 26°05' W 080°07'2 1.6
2016-Jul-24 00:33N 26°06' W 080°05'1 1.5
2016-Jul-23 23:33N 26°05' W 080°07'3 2.7
2016-Jul-23 22:34N 26°07' W 080°04'2 2.4
2016-Jul-23 21:33N 26°06' W 080°07'1 0.6
2016-Jul-23 20:33N 26°05' W 080°07'0 0.0
2016-Jul-23 11:28N 26°06' W 080°07'0 0.3
2016-Jul-23 10:34N 26°06' W 080°07'2 1.8
2016-Jul-23 09:33N 26°05' W 080°05'2 2.2
2016-Jul-23 08:33N 26°05' W 080°07'3 3.5
2016-Jul-23 07:33N 26°05' W 080°03'3 3.2
2016-Jul-23 06:33N 26°05' W 080°07'1 0.6
2016-Jul-23 04:34N 26°06' W 080°07'0 0.2
2016-Jul-23 03:23N 26°06' W 080°07'1 1.0
2016-Jul-23 02:33N 26°05' W 080°07'1 0.7
2016-Jul-23 01:33N 26°06' W 080°07'0 0.4
2016-Jul-23 00:33N 26°06' W 080°07'1 1.2
2016-Jul-22 23:33N 26°04' W 080°07'1 0.4
2016-Jul-22 20:34N 26°06' W 080°07'3 3.2
2016-Jul-22 19:33N 26°07' W 080°04'3 0.4
2016-Jul-22 10:33N 26°06' W 080°07'0 0.0
2016-Jul-21 13:12N 26°06' W 080°07'0 0.0
2016-Jul-21 12:33N 26°06' W 080°07'0 0.0
2016-Jul-20 18:32N 26°06' W 080°07'2 2.0
2016-Jul-20 17:34N 26°06' W 080°05'2 0.8
2016-Jul-20 15:06N 26°06' W 080°07'1 0.9
2016-Jul-20 14:33N 26°06' W 080°07'1 0.0
2016-Jul-19 15:33N 26°06' W 080°07'0 0.0
2016-Jul-19 14:33N 26°06' W 080°07'1 0.8
2016-Jul-19 13:33N 26°06' W 080°07'1 0.7
2016-Jul-19 12:33N 26°06' W 080°07'0 0.0
2016-Jul-19 11:33N 26°06' W 080°07'0 0.0
2016-Jul-19 10:33N 26°06' W 080°07'0 0.0
2016-Jul-18 19:16N 26°06' W 080°07'1 1.0
2016-Jul-18 18:33N 26°06' W 080°07'0 0.4
2016-Jul-18 17:33N 26°05' W 080°07'1 1.3
2016-Jul-18 16:33N 26°05' W 080°05'2 1.8
2016-Jul-18 15:33N 26°06' W 080°04'3 3.1
2016-Jul-18 14:33N 26°06' W 080°07'1 0.7
2016-Jul-18 13:33N 26°06' W 080°07'1 1.3
2016-Jul-18 12:34N 26°06' W 080°06'1 1.0
2016-Jul-18 11:33N 26°06' W 080°07'  

Dump ship's entire track history